createdAt,value
2023-02-15T00:04:47.116Z,6.37
2023-02-15T00:09:51.496Z,6.58
2023-02-15T00:14:54.237Z,6.84
2023-02-15T00:19:58.476Z,6.89
2023-02-15T00:25:01.211Z,6.71
2023-02-15T00:30:04.115Z,6.58
2023-02-15T00:35:10.164Z,6.61
2023-02-15T00:40:13.505Z,6.70
2023-02-15T00:45:17.397Z,6.62
2023-02-15T00:50:23.964Z,6.80
2023-02-15T00:55:26.878Z,6.76
2023-02-15T01:00:29.681Z,6.74
2023-02-15T01:05:34.858Z,7.02
2023-02-15T01:10:38.062Z,7.09
2023-02-15T01:15:43.654Z,6.57
2023-02-15T01:20:48.575Z,6.73
2023-02-15T01:25:51.652Z,7.04
2023-02-15T01:30:54.629Z,6.81
2023-02-15T01:36:02.125Z,6.83
2023-02-15T01:41:24.877Z,6.85
2023-02-15T01:46:33.151Z,6.83
2023-02-15T01:51:42.504Z,7.19
2023-02-15T01:56:45.493Z,7.21
2023-02-15T02:01:48.640Z,7.09
2023-02-15T02:06:53.570Z,7.18
2023-02-15T02:11:56.482Z,7.28
2023-02-15T02:17:08.064Z,7.30
2023-02-15T02:22:44.708Z,7.26
2023-02-15T02:27:52.998Z,7.14
2023-02-15T02:33:15.634Z,6.96
2023-02-15T02:38:26.539Z,7.14
2023-02-15T02:43:35.915Z,7.27
2023-02-15T02:48:40.861Z,6.90
2023-02-15T02:53:43.678Z,6.77
2023-02-15T02:58:53.680Z,6.87
2023-02-15T03:04:02.104Z,6.59
2023-02-15T03:09:08.730Z,6.98
2023-02-15T03:14:12.935Z,6.98
2023-02-15T03:19:20.082Z,7.07
2023-02-15T03:24:27.353Z,7.22
2023-02-15T03:29:31.453Z,7.15
2023-02-15T03:34:35.904Z,7.15
2023-02-15T03:39:42.121Z,7.13
2023-02-15T03:44:53.539Z,7.09
2023-02-15T03:50:03.024Z,6.82
2023-02-15T03:55:06.399Z,6.78
2023-02-15T04:00:32.540Z,6.92
2023-02-15T04:05:36.689Z,6.86
2023-02-15T04:10:54.388Z,6.81
2023-02-15T04:16:07.714Z,6.85
2023-02-15T04:21:31.764Z,6.84
2023-02-15T04:26:34.527Z,6.94
2023-02-15T04:31:37.437Z,7.00
2023-02-15T04:36:42.258Z,6.72
2023-02-15T04:41:45.395Z,6.34
2023-02-15T04:46:48.162Z,6.38
2023-02-15T04:51:52.293Z,6.45
2023-02-15T04:56:55.105Z,6.32
2023-02-15T05:01:57.926Z,6.36
2023-02-15T05:07:02.052Z,6.66
2023-02-15T05:12:04.998Z,6.53
2023-02-15T05:17:08.323Z,6.66
2023-02-15T05:22:12.485Z,6.56
2023-02-15T05:27:32.639Z,6.63
2023-02-15T05:32:35.530Z,6.74
2023-02-15T05:37:39.780Z,6.88
2023-02-15T05:42:42.556Z,6.80
2023-02-15T05:47:45.359Z,6.72
2023-02-15T05:52:51.326Z,6.58
2023-02-15T05:57:55.206Z,6.59
2023-02-15T06:02:58.045Z,6.28
2023-02-15T06:08:02.976Z,5.48
2023-02-15T06:13:06.838Z,6.27
2023-02-15T06:18:09.630Z,5.60
2023-02-15T06:23:13.820Z,6.11
2023-02-15T06:28:16.768Z,5.54
2023-02-15T06:33:19.660Z,5.80
2023-02-15T06:38:23.844Z,5.94
2023-02-15T06:43:26.725Z,5.76
2023-02-15T06:48:29.612Z,5.70
2023-02-15T06:53:33.767Z,5.85
2023-02-15T06:58:36.556Z,5.67
2023-02-15T07:03:39.310Z,5.65
2023-02-15T07:08:43.525Z,5.90
2023-02-15T07:13:46.544Z,6.28
2023-02-15T07:18:49.732Z,6.45
2023-02-15T07:23:58.499Z,6.30
2023-02-15T07:29:01.728Z,6.34
2023-02-15T07:34:04.545Z,6.53
2023-02-15T07:39:08.621Z,6.11
2023-02-15T07:44:13.453Z,5.93
2023-02-15T07:49:16.651Z,6.02
2023-02-15T07:54:21.087Z,5.84
2023-02-15T07:59:25.010Z,5.92
2023-02-15T08:04:27.730Z,6.15
2023-02-15T08:09:31.925Z,6.38
2023-02-15T08:14:34.879Z,5.91
2023-02-15T08:19:37.914Z,6.16
2023-02-15T08:24:43.026Z,6.01
2023-02-15T08:29:45.804Z,5.99
2023-02-15T08:55:11.800Z,6.06
2023-02-15T09:00:16.122Z,5.92
2023-02-15T09:05:18.844Z,6.59
2023-02-15T09:10:23.039Z,6.72
2023-02-15T09:15:25.826Z,6.51
2023-02-15T09:20:29.367Z,6.96
2023-02-15T09:25:33.419Z,6.85
2023-02-15T09:30:36.380Z,6.40
2023-02-15T09:35:39.185Z,6.95
2023-02-15T09:40:58.755Z,7.09
2023-02-15T09:46:14.870Z,6.97
2023-02-15T09:51:34.458Z,6.99
2023-02-15T09:56:46.460Z,7.18
2023-02-15T10:02:05.914Z,7.73
2023-02-15T10:07:27.793Z,7.18
2023-02-15T10:13:09.117Z,7.77
2023-02-15T10:18:41.285Z,8.03
2023-02-15T10:24:07.416Z,8.27
2023-02-15T10:29:23.736Z,8.26
2023-02-15T10:34:39.270Z,8.05
2023-02-15T10:40:04.297Z,8.51
2023-02-15T10:45:25.616Z,8.40
2023-02-15T10:50:50.664Z,8.88
2023-02-15T10:56:03.647Z,8.89
2023-02-15T11:01:23.915Z,8.59
2023-02-15T11:06:33.510Z,8.73
2023-02-15T11:11:52.276Z,8.76
2023-02-15T11:16:59.502Z,9.03
2023-02-15T11:22:29.073Z,8.60
2023-02-15T11:27:51.304Z,8.31
2023-02-15T11:33:03.952Z,8.47
2023-02-15T11:38:22.605Z,8.71
2023-02-15T11:43:33.300Z,7.89
2023-02-15T11:48:39.642Z,7.86
2023-02-15T11:53:46.683Z,7.81
2023-02-15T11:59:03.103Z,7.93
2023-02-15T12:04:17.015Z,7.94
2023-02-15T12:09:31.275Z,8.03
2023-02-15T12:14:50.084Z,8.19
2023-02-15T12:19:57.120Z,8.10
2023-02-15T12:25:02.626Z,8.36
2023-02-15T12:30:09.457Z,8.45
2023-02-15T12:35:21.760Z,8.68
2023-02-15T12:40:30.933Z,8.92
2023-02-15T12:45:35.719Z,9.10
2023-02-15T12:50:41.215Z,9.07
2023-02-15T12:55:53.958Z,8.80
2023-02-15T13:01:14.565Z,9.08
2023-02-15T13:06:20.286Z,8.96
2023-02-15T13:11:26.733Z,9.50
2023-02-15T13:16:34.505Z,9.81
2023-02-15T13:21:41.881Z,10.04
2023-02-15T13:26:46.519Z,9.74
2023-02-15T13:31:51.938Z,9.61
2023-02-15T13:37:09.189Z,9.48
2023-02-15T13:42:23.157Z,9.38
2023-02-15T13:47:31.075Z,9.40
2023-02-15T13:52:42.623Z,9.37
2023-02-15T13:58:05.893Z,9.28
2023-02-15T14:03:45.793Z,9.41
2023-02-15T14:09:03.370Z,9.97
2023-02-15T14:14:34.007Z,9.93
2023-02-15T14:19:42.300Z,9.97
2023-02-15T14:24:55.679Z,10.02
2023-02-15T14:30:01.372Z,9.88
2023-02-15T14:35:05.800Z,9.58
2023-02-15T14:40:36.722Z,9.71
2023-02-15T14:45:45.102Z,9.77
2023-02-15T14:50:48.852Z,10.09
2023-02-15T14:56:19.509Z,9.96
2023-02-15T15:01:28.218Z,10.18
2023-02-15T15:06:33.760Z,9.96
2023-02-15T15:11:48.747Z,10.37
2023-02-15T15:16:53.343Z,10.28
2023-02-15T15:21:58.691Z,10.23
2023-02-15T15:27:34.758Z,10.29
2023-02-15T15:32:46.042Z,9.93
2023-02-15T15:38:29.600Z,9.64
2023-02-15T15:43:45.632Z,9.39
2023-02-15T15:48:50.056Z,9.48
2023-02-15T15:53:55.699Z,9.63
2023-02-15T15:59:02.385Z,9.61
2023-02-15T16:04:06.955Z,9.41
2023-02-15T16:09:20.878Z,9.25
2023-02-15T16:14:33.759Z,9.12
2023-02-15T16:19:43.128Z,8.97
2023-02-15T16:25:05.223Z,8.55
2023-02-15T16:30:27.584Z,8.30
2023-02-15T16:35:33.379Z,8.22
2023-02-15T16:40:53.722Z,8.30
2023-02-15T16:46:05.379Z,8.06
2023-02-15T16:51:10.851Z,7.98
2023-02-15T16:56:14.837Z,7.79
2023-02-15T17:01:21.749Z,7.89
2023-02-15T17:06:27.833Z,8.03
2023-02-15T17:11:37.402Z,8.03
2023-02-15T17:16:45.547Z,7.47
2023-02-15T17:21:53.950Z,7.63
2023-02-15T17:27:00.850Z,7.67
2023-02-15T17:32:05.884Z,7.58
2023-02-15T17:37:14.414Z,7.39
2023-02-15T17:42:17.172Z,7.52
2023-02-15T17:47:22.769Z,7.32
2023-02-15T17:52:31.139Z,7.01
2023-02-15T17:57:34.915Z,7.25
2023-02-15T18:02:55.521Z,7.46
2023-02-15T18:08:20.195Z,7.65
2023-02-15T18:13:22.935Z,7.49
2023-02-15T18:18:26.306Z,7.43
2023-02-15T18:23:30.443Z,7.37
2023-02-15T18:28:33.335Z,7.21
2023-02-15T18:33:39.275Z,7.01
2023-02-15T18:38:43.641Z,7.42
2023-02-15T18:43:47.043Z,7.06
2023-02-15T18:48:49.829Z,7.20
2023-02-15T18:53:54.720Z,7.18
2023-02-15T18:58:58.620Z,7.03
2023-02-15T19:04:03.523Z,7.04
2023-02-15T19:09:21.972Z,7.05
2023-02-15T19:14:31.306Z,7.13
2023-02-15T19:19:43.132Z,6.89
2023-02-15T19:24:48.819Z,6.97
2023-02-15T19:29:52.406Z,6.87
2023-02-15T19:34:55.383Z,6.81
2023-02-15T19:39:59.716Z,6.76
2023-02-15T19:45:02.680Z,6.48
2023-02-15T19:50:06.139Z,6.67
2023-02-15T19:55:18.231Z,6.30
2023-02-15T20:00:23.475Z,6.33
2023-02-15T20:05:27.493Z,6.48
2023-02-15T20:10:33.125Z,6.54
2023-02-15T20:15:36.497Z,6.57
2023-02-15T20:20:42.759Z,6.63
2023-02-15T20:25:47.214Z,6.70
2023-02-15T20:30:51.031Z,6.65
2023-02-15T20:35:54.331Z,6.66
2023-02-15T20:41:18.456Z,6.35
2023-02-15T20:46:24.591Z,6.36
2023-02-15T20:51:27.902Z,6.49
2023-02-15T20:56:33.785Z,6.26
2023-02-15T21:01:36.848Z,6.45
2023-02-15T21:06:42.228Z,6.51
2023-02-15T21:11:46.825Z,6.78
2023-02-15T21:16:51.514Z,6.38
2023-02-15T21:21:54.791Z,6.45
2023-02-15T21:27:03.280Z,6.44
2023-02-15T21:32:06.273Z,6.18
2023-02-15T21:37:27.433Z,6.12
2023-02-15T21:42:54.606Z,6.11
2023-02-15T21:47:57.460Z,6.06
2023-02-15T21:53:00.508Z,6.00
2023-02-15T21:58:06.339Z,5.89
2023-02-15T22:03:09.119Z,6.19
2023-02-15T22:08:14.040Z,5.86
2023-02-15T22:13:24.638Z,5.55
2023-02-15T22:18:31.375Z,5.71
2023-02-15T22:23:35.844Z,5.66
2023-02-15T22:28:41.791Z,5.80
2023-02-15T22:33:45.589Z,5.51
2023-02-15T22:38:48.339Z,5.44
2023-02-15T22:43:53.344Z,5.48
2023-02-15T22:48:56.211Z,5.63
2023-02-15T22:53:59.131Z,5.26
2023-02-15T22:59:06.837Z,5.58
2023-02-15T23:04:17.122Z,5.73
2023-02-15T23:09:20.827Z,5.79
2023-02-15T23:14:29.122Z,5.81
2023-02-15T23:19:32.243Z,5.98
2023-02-15T23:24:35.420Z,5.68
2023-02-15T23:29:39.572Z,6.15
2023-02-15T23:34:43.398Z,6.29
2023-02-15T23:40:03.593Z,5.95
2023-02-15T23:45:22.225Z,6.32
2023-02-15T23:50:27.505Z,6.06
2023-02-15T23:55:36.265Z,6.30
